createdAt,value
2023-05-10T00:01:49.412Z,48.94
2023-05-10T00:04:21.677Z,49.49
2023-05-10T00:06:48.395Z,49.95
2023-05-10T00:09:14.964Z,49.74
2023-05-10T00:11:43.452Z,49.89
2023-05-10T00:14:10.045Z,49.93
2023-05-10T00:16:36.676Z,50.02
2023-05-10T00:19:03.324Z,50.30
2023-05-10T00:21:30.243Z,49.16
2023-05-10T00:23:56.853Z,48.89
2023-05-10T00:26:23.465Z,49.00
2023-05-10T00:28:55.580Z,49.07
2023-05-10T00:31:22.443Z,49.37
2023-05-10T00:33:49.037Z,49.78
2023-05-10T00:36:15.931Z,49.96
2023-05-10T00:38:42.562Z,49.88
2023-05-10T00:41:09.510Z,49.21
2023-05-10T00:43:38.515Z,49.98
2023-05-10T00:46:05.728Z,49.59
2023-05-10T00:48:32.620Z,49.65
2023-05-10T00:50:59.316Z,49.46
2023-05-10T00:53:25.946Z,49.37
2023-05-10T00:55:52.623Z,49.48
2023-05-10T00:58:19.321Z,49.52
2023-05-10T01:00:49.143Z,49.48
2023-05-10T01:03:15.902Z,50.27
2023-05-10T01:05:42.627Z,50.08
2023-05-10T01:08:09.746Z,50.12
2023-05-10T01:10:38.572Z,50.36
2023-05-10T01:13:05.420Z,49.91
2023-05-10T01:15:34.324Z,49.55
2023-05-10T01:18:01.450Z,50.16
2023-05-10T01:20:31.458Z,49.89
2023-05-10T01:23:07.319Z,50.41
2023-05-10T01:25:52.796Z,50.01
2023-05-10T01:28:36.257Z,49.55
2023-05-10T01:31:09.101Z,50.86
2023-05-10T01:34:00.009Z,50.18
2023-05-10T01:36:27.269Z,50.56
2023-05-10T01:39:03.573Z,50.55
2023-05-10T01:41:49.145Z,50.68
2023-05-10T01:44:21.748Z,50.84
2023-05-10T01:46:58.552Z,51.51
2023-05-10T01:49:27.613Z,51.29
2023-05-10T01:51:55.879Z,51.13
2023-05-10T01:54:23.539Z,50.39
2023-05-10T01:56:53.649Z,51.08
2023-05-10T01:59:21.012Z,50.70
2023-05-10T02:01:51.059Z,50.59
2023-05-10T02:04:18.414Z,51.19
2023-05-10T02:06:47.513Z,50.74
2023-05-10T02:09:15.295Z,50.98
2023-05-10T02:11:43.903Z,51.39
2023-05-10T02:14:12.236Z,50.58
2023-05-10T02:16:39.969Z,51.18
2023-05-10T02:19:09.524Z,51.71
2023-05-10T02:21:36.968Z,51.33
2023-05-10T02:24:07.538Z,51.58
2023-05-10T02:26:35.351Z,52.27
2023-05-10T02:29:04.488Z,52.05
2023-05-10T02:31:33.208Z,52.04
2023-05-10T02:34:01.115Z,51.95
2023-05-10T02:36:28.764Z,52.09
2023-05-10T02:38:56.139Z,52.14
2023-05-10T02:41:24.145Z,52.05
2023-05-10T02:43:51.903Z,52.63
2023-05-10T02:46:23.913Z,52.74
2023-05-10T02:48:50.723Z,53.09
2023-05-10T02:51:19.279Z,53.04
2023-05-10T02:53:47.834Z,52.95
2023-05-10T02:56:24.685Z,51.97
2023-05-10T02:58:54.360Z,52.51
2023-05-10T03:01:20.990Z,53.20
2023-05-10T03:03:47.698Z,52.75
2023-05-10T03:06:14.385Z,53.05
2023-05-10T03:08:41.042Z,53.82
2023-05-10T03:11:31.254Z,52.53
2023-05-10T03:14:18.184Z,53.16
2023-05-10T03:16:49.331Z,52.89
2023-05-10T03:19:27.443Z,52.87
2023-05-10T03:21:56.980Z,52.62
2023-05-10T03:24:25.223Z,53.27
2023-05-10T03:26:54.929Z,52.81
2023-05-10T03:29:22.904Z,52.68
2023-05-10T03:31:49.580Z,53.15
2023-05-10T03:34:16.551Z,53.13
2023-05-10T03:36:43.244Z,53.07
2023-05-10T03:39:11.144Z,52.95
2023-05-10T03:41:37.837Z,53.08
2023-05-10T03:44:04.702Z,53.43
2023-05-10T03:46:32.171Z,53.27
2023-05-10T03:48:59.005Z,52.40
2023-05-10T03:51:29.031Z,52.32
2023-05-10T03:53:58.548Z,52.47
2023-05-10T03:56:25.846Z,52.53
2023-05-10T03:58:52.403Z,52.68
2023-05-10T04:01:19.008Z,52.74
2023-05-10T04:03:54.209Z,52.66
2023-05-10T04:06:21.145Z,52.33
2023-05-10T04:08:50.732Z,52.45
2023-05-10T04:11:18.096Z,51.96
2023-05-10T04:13:44.664Z,52.28
2023-05-10T04:16:11.310Z,51.99
2023-05-10T04:18:37.864Z,52.00
2023-05-10T04:21:04.602Z,52.19
2023-05-10T04:23:31.115Z,52.49
2023-05-10T04:26:01.591Z,52.36
2023-05-10T04:28:28.365Z,52.59
2023-05-10T04:31:01.338Z,51.74
2023-05-10T04:33:31.597Z,51.86
2023-05-10T04:35:58.320Z,52.50
2023-05-10T04:38:25.592Z,52.93
2023-05-10T04:40:52.300Z,51.67
2023-05-10T04:43:18.799Z,52.62
2023-05-10T04:45:45.392Z,51.64
2023-05-10T04:48:12.395Z,51.51
2023-05-10T04:50:39.957Z,51.42
2023-05-10T04:53:06.592Z,51.26
2023-05-10T04:55:38.975Z,51.67
2023-05-10T04:58:05.523Z,49.87
2023-05-10T05:00:32.038Z,50.18
2023-05-10T05:02:58.766Z,50.59
2023-05-10T05:05:25.457Z,50.55
2023-05-10T05:07:52.045Z,50.51
2023-05-10T05:10:18.935Z,50.47
2023-05-10T05:12:45.772Z,50.06
2023-05-10T05:15:12.645Z,49.52
2023-05-10T05:17:39.364Z,49.98
2023-05-10T05:20:11.661Z,49.56
2023-05-10T05:22:38.625Z,49.35
2023-05-10T05:25:05.542Z,49.11
2023-05-10T05:27:32.203Z,49.94
2023-05-10T05:30:01.463Z,49.65
2023-05-10T05:32:28.114Z,49.54
2023-05-10T05:34:54.636Z,49.98
2023-05-10T05:37:25.519Z,50.30
2023-05-10T05:39:52.208Z,50.40
2023-05-10T05:42:19.792Z,50.33
2023-05-10T05:44:46.694Z,50.55
2023-05-10T05:47:13.324Z,50.27
2023-05-10T05:49:40.398Z,50.33
2023-05-10T05:52:06.919Z,50.67
2023-05-10T05:54:36.539Z,51.02
2023-05-10T05:57:03.177Z,51.08
2023-05-10T05:59:29.831Z,50.98
2023-05-10T06:01:56.448Z,51.42
2023-05-10T06:04:23.335Z,51.72
2023-05-10T06:06:49.953Z,51.46
2023-05-10T06:09:16.993Z,51.96
2023-05-10T06:11:43.896Z,51.25
2023-05-10T06:14:12.729Z,51.37
2023-05-10T06:16:39.296Z,50.87
2023-05-10T06:19:05.938Z,50.68
2023-05-10T06:21:32.861Z,50.77
2023-05-10T06:23:59.519Z,51.06
2023-05-10T06:26:26.051Z,51.23
2023-05-10T06:28:55.216Z,51.29
2023-05-10T06:31:22.120Z,51.39
2023-05-10T06:33:48.777Z,51.29
2023-05-10T06:36:15.509Z,52.26
2023-05-10T06:38:44.446Z,51.73
2023-05-10T06:41:11.153Z,51.16
2023-05-10T06:43:40.945Z,51.44
2023-05-10T06:46:08.353Z,51.47
2023-05-10T06:48:37.196Z,50.97
2023-05-10T06:51:03.841Z,50.67
2023-05-10T06:53:30.916Z,50.49
2023-05-10T06:55:57.563Z,50.98
2023-05-10T06:58:24.385Z,51.80
2023-05-10T07:00:53.281Z,51.60
2023-05-10T07:03:19.904Z,52.07
2023-05-10T07:05:46.511Z,51.67
2023-05-10T07:08:14.428Z,51.48
2023-05-10T07:10:41.043Z,51.38
2023-05-10T07:13:07.937Z,51.11
2023-05-10T07:15:34.653Z,51.54
2023-05-10T07:18:04.240Z,51.36
2023-05-10T07:20:30.992Z,50.74
2023-05-10T07:22:58.146Z,51.61
2023-05-10T07:25:25.208Z,50.74
2023-05-10T07:27:52.024Z,50.22
2023-05-10T07:30:18.688Z,50.91
2023-05-10T07:32:48.409Z,51.30
2023-05-10T07:35:15.449Z,50.80
2023-05-10T07:37:44.574Z,50.58
2023-05-10T07:40:11.305Z,50.61
2023-05-10T07:42:38.023Z,51.99
2023-05-10T07:45:05.047Z,50.68
2023-05-10T07:47:31.594Z,50.27
2023-05-10T07:49:58.326Z,51.60
2023-05-10T07:52:27.983Z,51.88
2023-05-10T07:54:54.669Z,50.80
2023-05-10T07:57:21.754Z,49.71
2023-05-10T07:59:48.571Z,49.89
2023-05-10T08:02:17.725Z,50.09
2023-05-10T08:04:45.592Z,49.86
2023-05-10T08:07:12.334Z,49.40
2023-05-10T08:09:38.933Z,49.21
2023-05-10T08:12:05.657Z,49.25
2023-05-10T08:14:32.344Z,48.76
2023-05-10T08:16:58.935Z,48.04
2023-05-10T08:19:30.940Z,49.00
2023-05-10T08:21:58.241Z,48.77
2023-05-10T08:24:30.170Z,49.30
2023-05-10T08:26:56.830Z,47.99
2023-05-10T08:29:23.473Z,48.61
2023-05-10T08:31:50.439Z,48.08
2023-05-10T08:34:19.727Z,48.42
2023-05-10T08:36:46.437Z,48.53
2023-05-10T08:39:22.934Z,49.07
2023-05-10T08:42:00.140Z,49.68
2023-05-10T08:44:26.850Z,50.38
2023-05-10T08:46:54.750Z,51.72
2023-05-10T08:49:21.899Z,51.93
2023-05-10T08:51:52.028Z,52.76
2023-05-10T08:54:20.806Z,54.53
2023-05-10T08:56:49.744Z,53.14
2023-05-10T08:59:16.998Z,54.04
2023-05-10T09:01:45.085Z,54.29
2023-05-10T09:04:13.097Z,54.17
2023-05-10T09:06:42.746Z,55.17
2023-05-10T09:09:09.720Z,54.38
2023-05-10T09:11:38.479Z,55.53
2023-05-10T09:14:05.362Z,55.71
2023-05-10T09:16:31.944Z,57.60
2023-05-10T09:18:58.701Z,59.23
2023-05-10T09:21:25.877Z,61.76
2023-05-10T09:23:55.145Z,63.00
2023-05-10T09:26:24.702Z,63.77
2023-05-10T09:29:01.003Z,65.02
2023-05-10T09:31:55.511Z,66.14
2023-05-10T09:34:30.720Z,65.98
2023-05-10T09:36:58.853Z,66.67
2023-05-10T09:39:32.499Z,68.96
2023-05-10T09:42:00.373Z,67.54
2023-05-10T09:44:27.140Z,67.83
2023-05-10T09:46:53.836Z,67.97
2023-05-10T09:49:22.314Z,69.02
2023-05-10T09:51:48.932Z,70.10
2023-05-10T09:54:16.918Z,69.48
2023-05-10T09:56:43.599Z,70.07
2023-05-10T09:59:20.864Z,70.55
2023-05-10T10:02:01.340Z,69.80
2023-05-10T10:04:28.514Z,71.47
2023-05-10T10:07:02.844Z,72.43
2023-05-10T10:09:29.480Z,73.45
2023-05-10T10:11:56.807Z,71.92
2023-05-10T10:14:24.888Z,71.88
2023-05-10T10:17:06.706Z,74.41
2023-05-10T10:19:36.741Z,73.54
2023-05-10T10:22:04.001Z,73.22
2023-05-10T10:24:30.820Z,74.69
2023-05-10T10:27:20.440Z,73.30
2023-05-10T10:30:03.076Z,72.78
2023-05-10T10:32:43.629Z,75.20
2023-05-10T10:35:10.818Z,74.15
2023-05-10T10:37:47.651Z,73.09
2023-05-10T10:40:33.637Z,73.40
2023-05-10T10:43:20.229Z,74.48
2023-05-10T10:46:08.870Z,76.66
2023-05-10T10:48:35.501Z,74.27
2023-05-10T10:51:02.105Z,77.13
2023-05-10T10:53:31.629Z,75.79
2023-05-10T10:56:11.199Z,76.30
2023-05-10T10:58:38.948Z,78.00
2023-05-10T11:01:16.437Z,78.82
2023-05-10T11:03:56.597Z,79.35
2023-05-10T11:06:30.189Z,79.81
2023-05-10T11:08:56.899Z,79.95
2023-05-10T11:11:23.537Z,80.05
2023-05-10T11:13:53.333Z,79.72
2023-05-10T11:16:29.746Z,79.08
2023-05-10T11:19:03.245Z,78.52
2023-05-10T11:21:33.741Z,79.13
2023-05-10T11:24:01.198Z,78.14
2023-05-10T11:26:35.510Z,78.74
2023-05-10T11:29:03.335Z,78.79
2023-05-10T11:31:30.372Z,79.05
2023-05-10T11:34:02.724Z,78.65
2023-05-10T11:36:30.474Z,78.12
2023-05-10T11:38:57.705Z,78.10
2023-05-10T11:41:25.503Z,77.89
2023-05-10T11:43:52.845Z,75.45
2023-05-10T11:46:21.392Z,75.49
2023-05-10T11:48:50.960Z,76.13
2023-05-10T11:51:21.578Z,77.55
2023-05-10T11:53:48.739Z,75.98
2023-05-10T11:56:15.389Z,76.31
2023-05-10T11:58:44.414Z,75.42
2023-05-10T12:01:11.728Z,76.08
2023-05-10T12:03:45.510Z,76.13
2023-05-10T12:06:12.567Z,77.47
2023-05-10T12:08:45.235Z,75.66
2023-05-10T12:11:13.513Z,75.94
2023-05-10T12:13:43.968Z,78.50
2023-05-10T12:16:18.146Z,78.92
2023-05-10T12:18:45.557Z,79.02
2023-05-10T12:21:15.451Z,79.54
2023-05-10T12:23:42.439Z,79.04
2023-05-10T12:26:11.836Z,79.19
2023-05-10T12:28:39.408Z,79.65
2023-05-10T12:31:06.822Z,80.40
2023-05-10T12:33:38.097Z,80.70
2023-05-10T12:36:04.847Z,80.20
2023-05-10T12:38:39.047Z,80.02
2023-05-10T12:41:09.028Z,80.70
2023-05-10T12:43:36.008Z,80.70
2023-05-10T12:46:20.902Z,80.33
2023-05-10T12:48:55.186Z,78.71
2023-05-10T12:51:26.898Z,77.60
2023-05-10T12:53:56.022Z,77.11
2023-05-10T12:56:23.514Z,77.37
2023-05-10T12:58:52.296Z,76.12
2023-05-10T13:01:18.947Z,74.33
2023-05-10T13:03:46.535Z,73.92
2023-05-10T13:06:21.637Z,74.24
2023-05-10T13:08:48.212Z,73.36
2023-05-10T13:11:17.632Z,73.17
2023-05-10T13:13:44.283Z,72.63
2023-05-10T13:16:10.976Z,71.71
2023-05-10T13:18:37.607Z,71.75
2023-05-10T13:21:06.889Z,68.29
2023-05-10T13:23:35.074Z,66.68
2023-05-10T13:26:01.636Z,64.82
2023-05-10T13:28:31.212Z,65.05
2023-05-10T13:30:57.920Z,65.35
2023-05-10T13:33:24.612Z,66.84
2023-05-10T13:35:51.533Z,66.19
2023-05-10T13:38:21.729Z,65.15
2023-05-10T13:40:49.212Z,65.57
2023-05-10T13:43:16.262Z,65.25
2023-05-10T13:45:42.877Z,64.64
2023-05-10T13:48:09.611Z,64.54
2023-05-10T13:50:36.262Z,63.51
2023-05-10T13:53:04.097Z,62.97
2023-05-10T13:55:33.793Z,62.59
2023-05-10T13:58:00.400Z,62.07
2023-05-10T14:00:27.866Z,61.81
2023-05-10T14:02:54.905Z,62.19
2023-05-10T14:05:25.532Z,60.45
2023-05-10T14:07:53.613Z,61.75
2023-05-10T14:10:20.190Z,61.64
2023-05-10T14:12:47.041Z,62.73
2023-05-10T14:15:13.692Z,63.14
2023-05-10T14:17:40.460Z,65.76
2023-05-10T14:20:07.400Z,61.16
2023-05-10T14:22:33.983Z,59.83
2023-05-10T14:25:00.765Z,59.87
2023-05-10T14:27:27.540Z,58.64
2023-05-10T14:29:54.603Z,61.58
2023-05-10T14:32:21.249Z,59.21
2023-05-10T14:34:47.799Z,57.64
2023-05-10T14:37:15.276Z,57.11
2023-05-10T14:39:43.428Z,57.55
2023-05-10T14:42:10.047Z,55.67
2023-05-10T14:44:36.565Z,54.19
2023-05-10T14:47:03.471Z,55.67
2023-05-10T14:49:30.220Z,53.73
2023-05-10T14:51:56.891Z,54.24
2023-05-10T14:54:23.819Z,52.99
2023-05-10T14:56:51.034Z,54.98
2023-05-10T14:59:19.313Z,56.54
2023-05-10T15:01:46.680Z,54.05
2023-05-10T15:04:14.522Z,55.30
2023-05-10T15:06:42.240Z,54.49
2023-05-10T15:09:08.805Z,55.49
2023-05-10T15:11:35.676Z,57.25
2023-05-10T15:14:03.123Z,54.71
2023-05-10T15:16:29.815Z,55.56
2023-05-10T15:18:56.443Z,52.34
2023-05-10T15:21:23.098Z,52.78
2023-05-10T15:23:49.916Z,54.85
2023-05-10T15:26:16.502Z,54.08
2023-05-10T15:28:43.073Z,54.24
2023-05-10T15:31:09.795Z,53.76
2023-05-10T15:33:38.145Z,55.98
2023-05-10T15:36:05.898Z,54.81
2023-05-10T15:38:36.012Z,55.42
2023-05-10T15:41:02.660Z,56.12
2023-05-10T15:43:29.338Z,56.43
2023-05-10T15:45:55.973Z,55.74
2023-05-10T15:48:22.665Z,54.93
2023-05-10T15:50:49.289Z,54.86
2023-05-10T15:53:15.877Z,55.26
2023-05-10T15:55:42.488Z,54.56
2023-05-10T15:58:09.092Z,54.73
2023-05-10T16:00:35.788Z,55.19
2023-05-10T16:03:02.536Z,55.67
2023-05-10T16:05:32.646Z,55.95
2023-05-10T16:07:59.765Z,56.89
2023-05-10T16:10:26.403Z,55.49
2023-05-10T16:12:55.963Z,56.48
2023-05-10T16:15:22.796Z,56.74
2023-05-10T16:17:49.625Z,56.21
2023-05-10T16:20:16.597Z,55.43
2023-05-10T16:22:44.490Z,55.25
2023-05-10T16:25:13.345Z,54.71
2023-05-10T16:27:41.063Z,54.88
2023-05-10T16:30:07.958Z,55.17
2023-05-10T16:32:35.109Z,54.77
2023-05-10T16:35:01.722Z,55.19
2023-05-10T16:37:28.585Z,55.34
2023-05-10T16:39:55.126Z,54.25
2023-05-10T16:42:21.747Z,54.93
2023-05-10T16:44:48.334Z,55.38
2023-05-10T16:47:14.953Z,56.04
2023-05-10T16:49:41.613Z,55.73
2023-05-10T16:52:08.441Z,55.61
2023-05-10T16:54:35.028Z,55.79
2023-05-10T16:57:02.201Z,55.77
2023-05-10T16:59:28.776Z,55.95
2023-05-10T17:01:55.826Z,56.69
2023-05-10T17:04:23.849Z,56.44
2023-05-10T17:06:50.601Z,55.95
2023-05-10T17:09:17.145Z,56.16
2023-05-10T17:11:43.733Z,55.84
2023-05-10T17:14:10.435Z,55.72
2023-05-10T17:16:37.145Z,56.48
2023-05-10T17:19:03.841Z,57.49
2023-05-10T17:21:31.916Z,57.33
2023-05-10T17:23:58.550Z,57.32
2023-05-10T17:26:30.124Z,58.65
2023-05-10T17:28:57.009Z,57.53
2023-05-10T17:31:23.557Z,57.22
2023-05-10T17:33:50.285Z,57.79
2023-05-10T17:36:16.951Z,59.05
2023-05-10T17:38:43.545Z,59.12
2023-05-10T17:41:10.193Z,60.20
2023-05-10T17:43:36.894Z,59.76
2023-05-10T17:46:03.766Z,57.57
2023-05-10T17:48:31.026Z,56.63
2023-05-10T17:50:57.726Z,59.00
2023-05-10T17:53:24.373Z,60.78
2023-05-10T17:55:51.574Z,60.38
2023-05-10T17:58:20.559Z,61.98
2023-05-10T18:00:48.098Z,62.99
2023-05-10T18:03:14.752Z,61.83
2023-05-10T18:05:41.404Z,63.76
2023-05-10T18:08:08.612Z,64.06
2023-05-10T18:10:36.145Z,63.38
2023-05-10T18:13:06.933Z,65.38
2023-05-10T18:15:35.284Z,64.48
2023-05-10T18:18:02.204Z,65.35
2023-05-10T18:20:28.913Z,64.81
2023-05-10T18:22:55.860Z,64.66
2023-05-10T18:25:22.451Z,64.99
2023-05-10T18:27:49.267Z,64.76
2023-05-10T18:30:16.033Z,66.10
2023-05-10T18:32:42.973Z,65.95
2023-05-10T18:35:09.884Z,66.28
2023-05-10T18:37:36.872Z,65.83
2023-05-10T18:40:05.003Z,67.39
2023-05-10T18:42:31.846Z,67.72
2023-05-10T18:44:58.450Z,68.34
2023-05-10T18:47:26.754Z,70.19
2023-05-10T18:49:53.859Z,69.85
2023-05-10T18:52:20.457Z,69.26
2023-05-10T18:54:47.090Z,70.18
2023-05-10T18:57:13.935Z,69.95
2023-05-10T18:59:40.523Z,70.18
2023-05-10T19:02:07.741Z,70.19
2023-05-10T19:04:36.810Z,70.57
2023-05-10T19:07:03.604Z,69.59
2023-05-10T19:09:30.248Z,68.89
2023-05-10T19:11:56.886Z,69.66
2023-05-10T19:14:25.419Z,68.93
2023-05-10T19:16:52.567Z,69.15
2023-05-10T19:19:21.455Z,70.67
2023-05-10T19:21:49.008Z,71.63
2023-05-10T19:24:15.694Z,71.11
2023-05-10T19:26:42.462Z,71.20
2023-05-10T19:29:09.458Z,70.90
2023-05-10T19:31:36.103Z,71.94
2023-05-10T19:34:05.912Z,71.00
2023-05-10T19:36:32.627Z,73.61
2023-05-10T19:38:59.253Z,73.30
2023-05-10T19:41:28.279Z,74.27
2023-05-10T19:43:54.879Z,75.14
2023-05-10T19:46:21.709Z,74.65
2023-05-10T19:48:51.158Z,73.37
2023-05-10T19:51:17.952Z,72.18
2023-05-10T19:53:44.883Z,71.82
2023-05-10T19:56:12.809Z,71.79
2023-05-10T19:58:40.357Z,72.19
2023-05-10T20:01:08.671Z,72.27
2023-05-10T20:03:36.807Z,72.58
2023-05-10T20:06:04.064Z,72.09
2023-05-10T20:08:31.071Z,73.88
2023-05-10T20:10:59.183Z,73.32
2023-05-10T20:13:25.892Z,73.31
2023-05-10T20:15:55.312Z,73.91
2023-05-10T20:18:22.589Z,74.99
2023-05-10T20:20:53.090Z,74.57
2023-05-10T20:23:19.805Z,73.32
2023-05-10T20:25:46.391Z,74.47
2023-05-10T20:28:13.231Z,75.44
2023-05-10T20:30:39.834Z,74.98
2023-05-10T20:33:06.573Z,74.00
2023-05-10T20:35:34.706Z,75.14
2023-05-10T20:38:02.436Z,74.68
2023-05-10T20:40:29.050Z,75.07
2023-05-10T20:42:55.820Z,76.30
2023-05-10T20:45:23.435Z,75.00
2023-05-10T20:47:50.321Z,75.01
2023-05-10T20:50:17.135Z,75.41
2023-05-10T20:52:44.521Z,75.11
2023-05-10T20:55:11.133Z,74.61
2023-05-10T20:57:37.854Z,74.38
2023-05-10T21:00:05.640Z,71.68
2023-05-10T21:02:32.404Z,71.18
2023-05-10T21:04:59.511Z,74.14
2023-05-10T21:07:26.243Z,75.66
2023-05-10T21:09:52.851Z,75.03
2023-05-10T21:12:19.544Z,74.90
2023-05-10T21:14:47.759Z,74.65
2023-05-10T21:17:14.651Z,75.03
2023-05-10T21:19:41.231Z,75.89
2023-05-10T21:22:07.909Z,75.49
2023-05-10T21:24:35.256Z,75.41
2023-05-10T21:27:02.881Z,75.30
2023-05-10T21:29:29.444Z,75.28
2023-05-10T21:31:58.554Z,75.23
2023-05-10T21:34:25.191Z,74.12
2023-05-10T21:36:51.811Z,73.59
2023-05-10T21:39:18.392Z,73.43
2023-05-10T21:41:45.051Z,73.21
2023-05-10T21:44:11.595Z,72.87
2023-05-10T21:46:38.218Z,74.03
2023-05-10T21:49:05.094Z,74.89
2023-05-10T21:51:31.731Z,75.13
2023-05-10T21:53:58.541Z,75.33
2023-05-10T21:56:25.141Z,76.45
2023-05-10T21:58:52.089Z,75.54
2023-05-10T22:01:19.035Z,76.50
2023-05-10T22:03:46.699Z,76.12
2023-05-10T22:06:13.312Z,75.15
2023-05-10T22:08:39.856Z,74.89
2023-05-10T22:11:06.441Z,75.18
2023-05-10T22:13:32.989Z,75.00
2023-05-10T22:15:59.588Z,75.64
2023-05-10T22:18:26.217Z,75.47
2023-05-10T22:20:52.837Z,75.43
2023-05-10T22:23:19.419Z,75.29
2023-05-10T22:25:46.012Z,77.54
2023-05-10T22:28:12.805Z,78.62
2023-05-10T22:30:39.437Z,77.92
2023-05-10T22:33:06.540Z,78.71
2023-05-10T22:35:33.233Z,77.89
2023-05-10T22:37:59.824Z,80.15
2023-05-10T22:40:26.504Z,80.79
2023-05-10T22:42:53.101Z,79.75
2023-05-10T22:45:19.697Z,77.93
2023-05-10T22:47:47.312Z,77.93
2023-05-10T22:50:14.384Z,75.55
2023-05-10T22:52:41.748Z,76.24
2023-05-10T22:55:08.552Z,75.98
2023-05-10T22:57:35.440Z,77.19
2023-05-10T23:00:03.652Z,78.03
2023-05-10T23:02:30.554Z,79.14
2023-05-10T23:04:57.205Z,77.54
2023-05-10T23:07:24.137Z,77.16
2023-05-10T23:09:51.000Z,76.54
2023-05-10T23:12:17.759Z,75.37
2023-05-10T23:14:46.556Z,75.97
2023-05-10T23:17:13.767Z,76.76
2023-05-10T23:19:40.451Z,75.71
2023-05-10T23:22:07.105Z,75.34
2023-05-10T23:24:33.674Z,77.47
2023-05-10T23:27:00.219Z,77.77
2023-05-10T23:29:26.843Z,78.55
2023-05-10T23:31:53.533Z,79.32
2023-05-10T23:34:20.190Z,78.08
2023-05-10T23:36:46.858Z,79.10
2023-05-10T23:39:13.563Z,81.25
2023-05-10T23:41:42.762Z,82.67
2023-05-10T23:44:09.376Z,80.06
2023-05-10T23:46:36.173Z,78.02
2023-05-10T23:49:02.764Z,77.86
2023-05-10T23:51:29.333Z,77.15
2023-05-10T23:53:55.991Z,77.03
2023-05-10T23:56:22.525Z,76.18
2023-05-10T23:58:49.191Z,75.50
